KMLP

Mullan Pass Vor Airport

Mullan Pass, Idaho, USA
METAR KMLP 162353Z AUTO VRB03KT 10SM OVC002 M08/M10 A3002 RMK AO2 SLP226 T10781100 11050 21078 53002 TSNO
Observed Flight Rules
Dec-16 @ 23:53 UTC (39 minutes ago) Instrument Flight Rules
Wind Visibility Clouds
Variable at 3 knots 10 miles
  • Overcast at 200' AGL
Temperatures Readings
Current -8°C / 18°F
Dewpoint -10°C / 14°F
Humidity 86%
Altimeter 30.02" Hg
Pressure 1022.6 hPa
Elevation 1837
METAR KMLP 162353Z AUTO VRB03KT 10SM OVC002 M08/M10 A3002 RMK AO2 SLP226 T10781100 11050 21078 53002 TSNO
Observed Flight Rules
Dec-16 @ 23:53 UTC
(39 minutes ago)
LIFR
Wind Visibility
Variable at 3 knots 10 miles
Clouds
  • Overcast at 200' AGL
Temperature Dewpoint
-8°C / 18°F -10°C / 14°F
Humidity Altimeter Pressure
86% 30.02" Hg 1022.6 hPa